createdAt,value
2024-05-09T00:01:13.612Z,100518.99
2024-05-09T00:03:47.546Z,100519.45
2024-05-09T00:06:19.787Z,100518.59
2024-05-09T00:08:50.960Z,100520.63
2024-05-09T00:11:22.882Z,100521.17
2024-05-09T00:13:54.399Z,100520.81
2024-05-09T00:16:25.627Z,100523.71
2024-05-09T00:18:56.876Z,100523.00
2024-05-09T00:21:28.191Z,100521.27
2024-05-09T00:23:59.367Z,100522.43
2024-05-09T00:26:30.558Z,100525.01
2024-05-09T00:29:02.138Z,100519.52
2024-05-09T00:31:33.279Z,100525.06
2024-05-09T00:34:04.579Z,100522.92
2024-05-09T00:36:35.741Z,100523.38
2024-05-09T00:39:07.061Z,100518.21
2024-05-09T00:41:38.341Z,100519.89
2024-05-09T00:44:09.624Z,100515.30
2024-05-09T00:46:41.011Z,100522.06
2024-05-09T00:49:13.417Z,100521.75
2024-05-09T00:51:49.016Z,100518.26
2024-05-09T00:54:21.194Z,100515.81
2024-05-09T00:56:53.824Z,100516.30
2024-05-09T00:59:25.946Z,100517.44
2024-05-09T01:01:57.335Z,100517.25
2024-05-09T01:04:29.120Z,100517.48
2024-05-09T01:07:00.471Z,100516.65
2024-05-09T01:09:32.234Z,100515.42
2024-05-09T01:12:04.078Z,100518.77
2024-05-09T01:14:36.897Z,100520.79
2024-05-09T01:17:08.586Z,100517.17
2024-05-09T01:19:42.310Z,100510.54
2024-05-09T01:22:18.736Z,100513.80
2024-05-09T01:24:51.770Z,100512.78
2024-05-09T01:27:23.448Z,100512.51
2024-05-09T01:29:55.802Z,100511.14
2024-05-09T01:32:33.460Z,100512.06
2024-05-09T01:35:05.589Z,100511.75
2024-05-09T01:37:41.441Z,100513.77
2024-05-09T01:40:22.024Z,100518.83
2024-05-09T01:42:56.234Z,100514.05
2024-05-09T01:45:27.671Z,100512.27
2024-05-09T01:47:58.518Z,100508.17
2024-05-09T01:50:38.148Z,100511.02
2024-05-09T01:53:14.758Z,100512.16
2024-05-09T01:55:48.266Z,100509.66
2024-05-09T01:58:20.441Z,100509.15
2024-05-09T02:00:53.522Z,100510.70
2024-05-09T02:03:24.927Z,100511.11
2024-05-09T02:05:56.808Z,100512.58
2024-05-09T02:08:31.886Z,100512.08
2024-05-09T02:11:03.606Z,100519.17
2024-05-09T02:13:36.322Z,100519.63
2024-05-09T02:16:17.392Z,100517.33
2024-05-09T02:18:52.935Z,100514.16
2024-05-09T02:21:27.909Z,100514.12
2024-05-09T02:23:59.684Z,100510.70
2024-05-09T02:26:31.345Z,100511.88
2024-05-09T02:29:02.588Z,100508.52
2024-05-09T02:31:38.167Z,100517.04
2024-05-09T02:34:11.167Z,100515.23
2024-05-09T02:36:45.075Z,100514.70
2024-05-09T02:39:22.251Z,100513.06
2024-05-09T02:42:01.364Z,100510.26
2024-05-09T02:44:36.435Z,100512.81
2024-05-09T02:47:14.151Z,100515.36
2024-05-09T02:49:48.953Z,100512.86
2024-05-09T02:52:24.767Z,100512.52
2024-05-09T02:55:01.177Z,100510.42
2024-05-09T02:57:33.646Z,100510.25
2024-05-09T03:00:18.426Z,100509.89
2024-05-09T03:02:55.293Z,100508.38
2024-05-09T03:05:31.120Z,100512.40
2024-05-09T03:08:02.430Z,100514.52
2024-05-09T03:10:39.243Z,100512.73
2024-05-09T03:13:15.832Z,100518.35
2024-05-09T03:15:56.757Z,100519.63
2024-05-09T03:18:32.598Z,100518.46
2024-05-09T03:21:07.622Z,100515.88
2024-05-09T03:23:41.307Z,100516.88
2024-05-09T03:26:16.306Z,100520.38
2024-05-09T03:28:47.785Z,100520.55
2024-05-09T03:31:21.009Z,100521.60
2024-05-09T03:33:56.155Z,100518.59
2024-05-09T03:36:31.419Z,100514.98
2024-05-09T03:39:03.613Z,100514.14
2024-05-09T03:41:37.308Z,100512.66
2024-05-09T03:44:08.547Z,100510.64
2024-05-09T03:46:41.144Z,100516.27
2024-05-09T03:49:12.463Z,100512.35
2024-05-09T03:51:43.740Z,100516.12
2024-05-09T03:54:17.420Z,100517.39
2024-05-09T03:56:54.733Z,100520.54
2024-05-09T03:59:29.696Z,100520.36
2024-05-09T04:02:01.044Z,100524.69
2024-05-09T04:04:37.508Z,100525.23
2024-05-09T04:07:09.310Z,100525.27
2024-05-09T04:09:44.300Z,100528.80
2024-05-09T04:12:20.345Z,100534.82
2024-05-09T04:14:54.939Z,100534.25
2024-05-09T04:17:26.324Z,100535.23
2024-05-09T04:20:01.352Z,100534.20
2024-05-09T04:22:37.635Z,100533.10
2024-05-09T04:25:13.817Z,100533.25
2024-05-09T04:27:47.320Z,100536.39
2024-05-09T04:30:26.237Z,100532.70
2024-05-09T04:33:11.058Z,100535.70
2024-05-09T04:35:52.039Z,100534.07
2024-05-09T04:38:30.499Z,100530.41
2024-05-09T04:41:04.449Z,100534.58
2024-05-09T04:43:36.399Z,100534.14
2024-05-09T04:46:09.671Z,100533.48
2024-05-09T04:48:45.630Z,100535.20
2024-05-09T04:51:19.389Z,100537.76
2024-05-09T04:53:53.038Z,100536.02
2024-05-09T04:56:29.414Z,100536.41
2024-05-09T04:59:06.637Z,100537.11
2024-05-09T05:01:45.208Z,100541.67
2024-05-09T05:04:23.527Z,100544.30
2024-05-09T05:06:55.262Z,100553.94
2024-05-09T05:09:29.152Z,100551.36
2024-05-09T05:12:24.448Z,100548.86
2024-05-09T05:15:00.676Z,100544.89
2024-05-09T05:17:36.677Z,100543.17
2024-05-09T05:20:15.088Z,100542.00
2024-05-09T05:22:47.713Z,100542.55
2024-05-09T05:25:23.899Z,100540.98
2024-05-09T05:27:57.264Z,100540.67
2024-05-09T05:30:32.905Z,100541.56
2024-05-09T05:33:07.092Z,100545.88
2024-05-09T05:35:38.551Z,100541.31
2024-05-09T05:38:11.094Z,100539.41
2024-05-09T05:40:42.392Z,100540.09
2024-05-09T05:43:19.249Z,100540.05
2024-05-09T05:45:50.291Z,100539.47
2024-05-09T05:48:25.800Z,100544.41
2024-05-09T05:50:59.002Z,100544.75
2024-05-09T05:53:31.112Z,100542.39
2024-05-09T05:56:02.379Z,100541.65
2024-05-09T05:58:33.680Z,100540.21
2024-05-09T06:01:06.888Z,100540.26
2024-05-09T06:03:39.251Z,100536.79
2024-05-09T06:06:10.739Z,100541.86
2024-05-09T06:08:42.174Z,100541.71
2024-05-09T06:11:13.485Z,100541.10
2024-05-09T06:13:45.828Z,100549.30
2024-05-09T06:16:17.673Z,100548.27
2024-05-09T06:18:48.904Z,100546.95
2024-05-09T06:21:20.060Z,100544.05
2024-05-09T06:23:53.185Z,100542.69
2024-05-09T06:26:24.416Z,100543.30
2024-05-09T06:28:55.604Z,100542.27
2024-05-09T06:31:27.822Z,100544.11
2024-05-09T06:33:59.002Z,100543.77
2024-05-09T06:36:30.161Z,100542.61
2024-05-09T06:39:01.191Z,100545.23
2024-05-09T06:41:32.447Z,100544.48
2024-05-09T06:44:03.752Z,100537.80
2024-05-09T06:46:37.104Z,100537.43
2024-05-09T06:49:08.982Z,100535.48
2024-05-09T06:51:40.628Z,100531.48
2024-05-09T06:54:11.935Z,100530.02
2024-05-09T06:56:43.120Z,100533.99
2024-05-09T06:59:14.460Z,100534.48
2024-05-09T07:01:45.588Z,100535.05
2024-05-09T07:04:16.889Z,100532.13
2024-05-09T07:06:48.079Z,100534.20
2024-05-09T07:09:19.183Z,100534.37
2024-05-09T07:11:50.347Z,100534.71
2024-05-09T07:14:21.613Z,100535.23
2024-05-09T07:16:52.758Z,100538.21
2024-05-09T07:19:24.525Z,100537.37
2024-05-09T07:21:56.138Z,100537.81
2024-05-09T07:24:27.536Z,100538.89
2024-05-09T07:26:58.687Z,100529.98
2024-05-09T07:29:29.910Z,100532.83
2024-05-09T07:32:01.078Z,100528.56
2024-05-09T07:34:32.337Z,100527.02
2024-05-09T07:37:05.581Z,100525.10
2024-05-09T07:39:36.966Z,100528.73
2024-05-09T07:42:08.736Z,100520.90
2024-05-09T07:44:38.361Z,100519.90
2024-05-09T07:48:14.777Z,100524.22
2024-05-09T07:51:47.626Z,100521.15
2024-05-09T07:53:35.370Z,100520.69
2024-05-09T07:55:43.000Z,100522.03
2024-05-09T07:58:14.212Z,100521.20
2024-05-09T08:00:48.013Z,100521.17
2024-05-09T08:03:19.547Z,100518.16
2024-05-09T08:05:51.645Z,100519.55
2024-05-09T08:08:23.109Z,100518.78
2024-05-09T08:10:54.288Z,100519.63
2024-05-09T08:13:25.372Z,100513.02
2024-05-09T08:15:56.498Z,100505.62
2024-05-09T08:18:27.758Z,100507.39
2024-05-09T08:20:59.207Z,100500.88
2024-05-09T08:23:30.259Z,100501.92
2024-05-09T08:26:01.587Z,100504.36
2024-05-09T08:28:32.730Z,100500.05
2024-05-09T08:31:06.878Z,100498.88
2024-05-09T08:33:44.051Z,100499.89
2024-05-09T08:36:16.132Z,100496.18
2024-05-09T08:38:47.557Z,100494.99
2024-05-09T08:41:18.884Z,100494.18
2024-05-09T08:43:50.093Z,100493.22
2024-05-09T08:46:21.533Z,100487.81
2024-05-09T08:48:53.058Z,100489.95
2024-05-09T08:51:24.421Z,100493.84
2024-05-09T08:53:55.621Z,100495.89
2024-05-09T08:56:36.024Z,100489.56
2024-05-09T08:59:13.551Z,100489.94
2024-05-09T09:01:47.156Z,100492.30
2024-05-09T09:04:19.469Z,100496.13
2024-05-09T09:06:56.336Z,100494.45
2024-05-09T09:09:29.797Z,100490.94
2024-05-09T09:12:01.364Z,100493.16
2024-05-09T09:14:51.352Z,100480.87
2024-05-09T09:17:22.967Z,100478.15
2024-05-09T09:19:56.351Z,100482.03
2024-05-09T09:22:35.446Z,100476.04
2024-05-09T09:25:08.027Z,100471.39
2024-05-09T09:27:40.152Z,100471.58
2024-05-09T09:30:27.407Z,100468.59
2024-05-09T09:33:04.869Z,100470.55
2024-05-09T09:35:36.845Z,100478.59
2024-05-09T09:38:10.600Z,100477.98
2024-05-09T09:40:49.513Z,100470.85
2024-05-09T09:43:23.313Z,100474.28
2024-05-09T09:46:00.264Z,100462.98
2024-05-09T09:48:33.237Z,100464.79
2024-05-09T09:51:05.764Z,100468.37
2024-05-09T09:53:38.082Z,100468.02
2024-05-09T09:56:10.968Z,100456.33
2024-05-09T09:58:42.993Z,100453.38
2024-05-09T10:01:17.920Z,100460.30
2024-05-09T10:04:10.836Z,100456.16
2024-05-09T10:06:52.410Z,100446.88
2024-05-09T10:09:24.072Z,100450.95
2024-05-09T10:12:09.574Z,100442.92
2024-05-09T10:14:52.632Z,100436.74
2024-05-09T10:17:24.063Z,100440.30
2024-05-09T10:20:11.829Z,100444.93
2024-05-09T10:22:52.718Z,100443.48
2024-05-09T10:25:24.968Z,100437.61
2024-05-09T10:27:58.603Z,100434.08
2024-05-09T10:30:35.751Z,100424.07
2024-05-09T10:33:12.068Z,100427.93
2024-05-09T10:35:53.216Z,100422.28
2024-05-09T10:38:27.696Z,100420.48
2024-05-09T10:41:00.726Z,100415.73
2024-05-09T10:43:34.122Z,100412.27
2024-05-09T10:46:06.223Z,100415.85
2024-05-09T10:48:38.586Z,100418.20
2024-05-09T10:51:10.374Z,100413.66
2024-05-09T10:53:45.193Z,100413.23
2024-05-09T10:56:17.384Z,100409.98
2024-05-09T10:58:51.993Z,100403.31
2024-05-09T11:01:24.254Z,100400.20
2024-05-09T11:03:54.421Z,100403.17
2024-05-09T11:06:24.430Z,100402.27
2024-05-09T11:09:02.882Z,100399.41
2024-05-09T11:11:36.027Z,100399.45
2024-05-09T11:14:17.218Z,100402.22
2024-05-09T11:16:58.762Z,100399.48
2024-05-09T11:19:33.602Z,100396.82
2024-05-09T11:22:05.775Z,100396.27
2024-05-09T11:24:37.682Z,100389.08
2024-05-09T11:27:08.898Z,100394.95
2024-05-09T11:29:41.140Z,100391.46
2024-05-09T11:32:14.700Z,100381.83
2024-05-09T11:34:45.909Z,100380.30
2024-05-09T11:37:17.617Z,100380.09
2024-05-09T11:39:49.307Z,100374.88
2024-05-09T11:42:22.384Z,100371.10
2024-05-09T11:44:55.824Z,100365.92
2024-05-09T11:47:27.560Z,100361.80
2024-05-09T11:49:58.866Z,100354.55
2024-05-09T11:52:30.032Z,100353.09
2024-05-09T11:55:02.498Z,100347.80
2024-05-09T11:57:33.942Z,100342.12
2024-05-09T12:00:09.510Z,100346.22
2024-05-09T12:02:43.096Z,100351.09
2024-05-09T12:05:14.578Z,100350.29
2024-05-09T12:07:45.820Z,100353.94
2024-05-09T12:10:22.218Z,100342.08
2024-05-09T12:12:59.315Z,100338.84
2024-05-09T12:15:30.780Z,100332.52
2024-05-09T12:18:03.901Z,100328.84
2024-05-09T12:20:38.792Z,100336.92
2024-05-09T12:23:11.449Z,100338.27
2024-05-09T12:25:42.770Z,100334.26
2024-05-09T12:28:14.002Z,100329.57
2024-05-09T12:30:45.282Z,100328.43
2024-05-09T12:33:17.098Z,100330.15
2024-05-09T12:35:50.831Z,100320.09
2024-05-09T12:38:22.329Z,100323.13
2024-05-09T12:40:54.495Z,100322.13
2024-05-09T12:43:27.980Z,100321.41
2024-05-09T12:45:58.158Z,100317.54
2024-05-09T12:48:29.516Z,100319.41
2024-05-09T12:51:00.969Z,100314.66
2024-05-09T12:53:32.210Z,100306.80
2024-05-09T12:56:03.857Z,100307.48
2024-05-09T12:58:37.170Z,100307.62
2024-05-09T13:01:10.569Z,100300.91
2024-05-09T13:03:42.738Z,100296.48
2024-05-09T13:06:14.709Z,100294.08
2024-05-09T13:08:46.018Z,100287.33
2024-05-09T13:11:17.869Z,100283.57
2024-05-09T13:13:49.314Z,100283.23
2024-05-09T13:16:20.621Z,100277.80
2024-05-09T13:18:51.925Z,100279.83
2024-05-09T13:21:23.354Z,100275.85
2024-05-09T13:23:56.224Z,100278.06
2024-05-09T13:26:28.492Z,100269.79
2024-05-09T13:29:00.337Z,100279.00
2024-05-09T13:31:32.463Z,100278.42
2024-05-09T13:34:04.059Z,100277.06
2024-05-09T13:36:35.979Z,100276.96
2024-05-09T13:39:07.535Z,100273.19
2024-05-09T13:41:38.626Z,100265.20
2024-05-09T13:44:11.648Z,100260.49
2024-05-09T13:46:48.938Z,100258.58
2024-05-09T13:53:41.744Z,100250.84
2024-05-09T13:56:15.924Z,100252.34
2024-05-09T13:58:51.361Z,100244.34
2024-05-09T14:01:23.931Z,100248.20
2024-05-09T14:03:55.348Z,100247.50
2024-05-09T14:06:25.463Z,100244.11
2024-05-09T14:08:57.696Z,100244.77
2024-05-09T14:11:28.962Z,100239.67
2024-05-09T14:14:00.072Z,100234.40
2024-05-09T14:16:32.059Z,100233.91
2024-05-09T14:19:04.001Z,100236.28
2024-05-09T14:21:36.845Z,100228.34
2024-05-09T14:24:12.504Z,100231.67
2024-05-09T14:26:55.730Z,100234.69
2024-05-09T14:29:27.492Z,100227.67
2024-05-09T14:31:58.631Z,100226.13
2024-05-09T14:34:29.827Z,100226.28
2024-05-09T14:37:01.154Z,100225.80
2024-05-09T14:39:32.891Z,100222.14
2024-05-09T14:42:04.337Z,100218.11
2024-05-09T14:44:35.644Z,100211.20
2024-05-09T14:47:07.168Z,100208.71
2024-05-09T14:49:37.015Z,100202.14
2024-05-09T14:52:09.307Z,100203.96
2024-05-09T14:54:40.847Z,100198.25
2024-05-09T14:57:12.014Z,100193.04
2024-05-09T14:59:43.242Z,100194.29
2024-05-09T15:02:14.473Z,100191.59
2024-05-09T15:04:45.830Z,100186.14
2024-05-09T15:07:17.755Z,100183.20
2024-05-09T15:09:49.339Z,100179.91
2024-05-09T15:12:20.504Z,100177.73
2024-05-09T15:14:52.045Z,100180.48
2024-05-09T15:17:23.438Z,100180.40
2024-05-09T15:19:53.452Z,100178.69
2024-05-09T15:22:24.956Z,100177.80
2024-05-09T15:24:54.728Z,100171.63
2024-05-09T15:27:26.076Z,100170.33
2024-05-09T15:29:57.250Z,100166.28
2024-05-09T15:32:29.478Z,100165.67
2024-05-09T15:35:00.827Z,100165.90
2024-05-09T15:37:32.209Z,100163.30
2024-05-09T15:42:35.285Z,100164.36
2024-05-09T15:45:07.547Z,100165.05
2024-05-09T15:47:38.900Z,100164.49
2024-05-09T15:50:20.206Z,100161.90
2024-05-09T15:52:59.000Z,100156.88
2024-05-09T15:55:33.260Z,100155.32
2024-05-09T15:58:05.226Z,100150.06
2024-05-09T16:00:40.787Z,100145.61
2024-05-09T16:03:15.084Z,100148.99
2024-05-09T16:05:48.130Z,100142.95
2024-05-09T16:08:19.822Z,100138.56
2024-05-09T16:10:51.691Z,100136.62
2024-05-09T16:13:23.210Z,100132.83
2024-05-09T16:15:54.817Z,100129.91
2024-05-09T16:18:26.342Z,100129.38
2024-05-09T16:21:00.014Z,100128.62
2024-05-09T16:23:31.316Z,100129.65
2024-05-09T16:26:02.745Z,100125.98
2024-05-09T16:28:34.074Z,100129.08
2024-05-09T16:31:04.514Z,100126.39
2024-05-09T16:33:36.110Z,100127.73
2024-05-09T16:36:08.261Z,100120.84
2024-05-09T16:38:40.800Z,100118.41
2024-05-09T16:41:13.086Z,100119.29
2024-05-09T16:43:44.115Z,100110.85
2024-05-09T16:46:15.434Z,100108.14
2024-05-09T16:48:46.992Z,100109.75
2024-05-09T16:51:18.276Z,100105.16
2024-05-09T16:53:49.906Z,100104.97
2024-05-09T16:56:23.523Z,100106.57
2024-05-09T16:58:54.579Z,100106.35
2024-05-09T17:01:25.819Z,100106.67
2024-05-09T17:03:57.765Z,100109.94
2024-05-09T17:06:29.321Z,100109.06
2024-05-09T17:09:08.356Z,100105.42
2024-05-09T17:11:43.055Z,100108.83
2024-05-09T17:14:14.300Z,100109.05
2024-05-09T17:16:45.468Z,100108.20
2024-05-09T17:19:17.017Z,100106.67
2024-05-09T17:21:46.916Z,100106.66
2024-05-09T17:24:18.032Z,100104.21
2024-05-09T17:26:49.460Z,100102.04
2024-05-09T17:29:19.612Z,100101.55
2024-05-09T17:31:50.630Z,100104.67
2024-05-09T17:34:21.849Z,100103.58
2024-05-09T17:36:53.394Z,100102.09
2024-05-09T17:39:23.185Z,100099.63
2024-05-09T17:41:54.303Z,100100.55
2024-05-09T17:44:26.780Z,100099.40
2024-05-09T17:46:58.047Z,100100.44
2024-05-09T17:49:29.380Z,100105.77
2024-05-09T17:52:00.655Z,100105.98
2024-05-09T17:54:31.890Z,100104.50
2024-05-09T17:57:03.230Z,100109.52
2024-05-09T17:59:34.386Z,100108.05
2024-05-09T18:02:05.919Z,100106.66
2024-05-09T18:04:37.409Z,100113.81
2024-05-09T18:07:09.123Z,100112.74
2024-05-09T18:09:40.431Z,100119.08
2024-05-09T18:12:11.854Z,100120.36
2024-05-09T18:14:43.449Z,100121.68
2024-05-09T18:17:14.811Z,100125.18
2024-05-09T18:19:46.082Z,100122.17
2024-05-09T18:22:17.526Z,100118.36
2024-05-09T18:24:48.707Z,100117.04
2024-05-09T18:27:20.242Z,100128.10
2024-05-09T18:29:52.051Z,100128.17
2024-05-09T18:32:23.508Z,100125.42
2024-05-09T18:34:53.541Z,100123.27
2024-05-09T18:37:24.963Z,100122.73
2024-05-09T18:39:57.978Z,100123.04
2024-05-09T18:42:29.113Z,100121.20
2024-05-09T18:45:01.132Z,100124.34
2024-05-09T18:47:32.360Z,100126.75
2024-05-09T18:50:04.780Z,100129.75
2024-05-09T18:52:38.673Z,100130.14
2024-05-09T18:55:10.355Z,100133.52
2024-05-09T18:57:40.382Z,100135.97
2024-05-09T19:00:22.998Z,100139.70
2024-05-09T19:03:04.698Z,100138.09
2024-05-09T19:05:36.880Z,100143.80
2024-05-09T19:08:07.704Z,100146.14
2024-05-09T19:10:40.664Z,100150.38
2024-05-09T19:13:13.774Z,100152.48
2024-05-09T19:15:45.792Z,100156.55
2024-05-09T19:18:17.472Z,100157.23
2024-05-09T19:20:47.503Z,100159.20
2024-05-09T19:23:18.881Z,100159.34
2024-05-09T19:25:50.088Z,100161.81
2024-05-09T19:28:21.322Z,100166.31
2024-05-09T19:30:52.670Z,100167.45
2024-05-09T19:33:23.868Z,100165.87
2024-05-09T19:35:55.019Z,100166.92
2024-05-09T19:38:26.306Z,100167.15
2024-05-09T19:40:57.960Z,100173.63
2024-05-09T19:43:32.284Z,100174.53
2024-05-09T19:46:05.486Z,100179.33
2024-05-09T19:48:35.450Z,100177.79
2024-05-09T19:51:07.373Z,100181.60
2024-05-09T19:53:38.718Z,100180.98
2024-05-09T19:56:10.189Z,100183.96
2024-05-09T19:58:41.480Z,100183.46
2024-05-09T20:01:12.860Z,100184.94
2024-05-09T20:03:44.750Z,100183.70
2024-05-09T20:06:24.248Z,100180.36
2024-05-09T20:08:58.793Z,100182.09
2024-05-09T20:11:32.764Z,100187.12
2024-05-09T20:14:06.508Z,100190.35
2024-05-09T20:16:39.796Z,100193.03
2024-05-09T20:19:12.225Z,100192.88
2024-05-09T20:21:45.013Z,100198.04
2024-05-09T20:24:17.496Z,100195.06
2024-05-09T20:26:49.635Z,100197.86
2024-05-09T20:29:22.948Z,100198.50
2024-05-09T20:31:55.664Z,100202.93
2024-05-09T20:34:28.724Z,100203.70
2024-05-09T20:37:00.788Z,100206.33
2024-05-09T20:39:44.104Z,100206.92
2024-05-09T20:42:16.182Z,100207.16
2024-05-09T20:44:47.434Z,100206.39
2024-05-09T20:47:23.305Z,100212.33
2024-05-09T20:49:55.303Z,100201.27
2024-05-09T20:52:26.483Z,100210.44
2024-05-09T20:54:57.849Z,100211.77
2024-05-09T20:57:29.940Z,100212.30
2024-05-09T21:00:01.488Z,100214.54
2024-05-09T21:02:33.279Z,100212.45
2024-05-09T21:05:04.861Z,100210.30
2024-05-09T21:07:46.806Z,100209.29
2024-05-09T21:10:22.536Z,100211.13
2024-05-09T21:12:54.696Z,100210.25
2024-05-09T21:15:26.577Z,100211.34
2024-05-09T21:17:58.365Z,100208.16
2024-05-09T21:20:32.461Z,100208.06
2024-05-09T21:23:04.814Z,100205.94
2024-05-09T21:25:36.458Z,100210.64
2024-05-09T21:28:08.614Z,100210.14
2024-05-09T21:30:42.635Z,100209.80
2024-05-09T21:33:15.361Z,100213.77
2024-05-09T21:35:46.841Z,100210.36
2024-05-09T21:38:18.217Z,100210.59
2024-05-09T21:40:49.546Z,100210.54
2024-05-09T21:43:20.863Z,100211.61
2024-05-09T21:45:52.586Z,100214.81
2024-05-09T21:48:23.766Z,100215.39
2024-05-09T21:50:55.226Z,100210.11
2024-05-09T21:53:26.617Z,100215.77
2024-05-09T21:55:57.733Z,100212.11
2024-05-09T21:58:28.877Z,100210.80
2024-05-09T22:01:00.153Z,100211.33
2024-05-09T22:03:31.306Z,100209.15
2024-05-09T22:06:03.316Z,100212.12
2024-05-09T22:08:34.761Z,100214.80
2024-05-09T22:11:07.162Z,100216.48
2024-05-09T22:13:38.333Z,100217.14
2024-05-09T22:16:10.751Z,100220.62
2024-05-09T22:18:42.050Z,100224.05
2024-05-09T22:21:13.840Z,100224.34
2024-05-09T22:23:43.709Z,100223.60
2024-05-09T22:26:14.797Z,100221.08
2024-05-09T22:28:46.238Z,100224.88
2024-05-09T22:31:18.259Z,100224.89
2024-05-09T22:33:49.611Z,100227.23
2024-05-09T22:36:20.837Z,100226.88
2024-05-09T22:38:51.972Z,100229.88
2024-05-09T22:41:23.044Z,100226.40
2024-05-09T22:43:54.162Z,100224.38
2024-05-09T22:46:25.430Z,100223.93
2024-05-09T22:48:56.767Z,100219.98
2024-05-09T22:51:27.887Z,100214.21
2024-05-09T22:53:58.971Z,100217.67
2024-05-09T22:56:30.984Z,100218.54
2024-05-09T22:59:02.586Z,100216.30
2024-05-09T23:01:33.770Z,100215.53
2024-05-09T23:04:05.743Z,100215.82
2024-05-09T23:06:35.454Z,100217.41
2024-05-09T23:09:08.184Z,100215.88
2024-05-09T23:11:42.756Z,100212.67
2024-05-09T23:14:13.817Z,100213.64
2024-05-09T23:16:44.970Z,100211.61
2024-05-09T23:19:16.236Z,100210.30
2024-05-09T23:21:47.317Z,100207.24
2024-05-09T23:24:18.352Z,100205.68
2024-05-09T23:26:49.422Z,100200.53
2024-05-09T23:29:20.704Z,100200.70
2024-05-09T23:31:51.767Z,100204.71
2024-05-09T23:34:23.062Z,100203.23
2024-05-09T23:36:54.445Z,100199.63
2024-05-09T23:39:25.592Z,100198.22
2024-05-09T23:41:56.778Z,100197.58
2024-05-09T23:44:27.819Z,100200.17
2024-05-09T23:46:58.957Z,100199.61
2024-05-09T23:49:30.014Z,100197.59
2024-05-09T23:52:01.184Z,100194.64
2024-05-09T23:54:32.553Z,100198.30
2024-05-09T23:57:03.654Z,100194.34
2024-05-09T23:59:34.904Z,100194.42
